createdAt,value
2022-08-04T00:01:06.198Z,90.60
2022-08-04T00:03:43.938Z,90.60
2022-08-04T00:06:19.441Z,90.70
2022-08-04T00:08:53.087Z,90.70
2022-08-04T00:11:27.030Z,90.80
2022-08-04T00:14:03.836Z,90.80
2022-08-04T00:16:38.339Z,90.90
2022-08-04T00:19:12.696Z,91.00
2022-08-04T00:21:47.861Z,91.10
2022-08-04T00:24:17.993Z,91.10
2022-08-04T00:26:47.545Z,91.10
2022-08-04T00:29:17.817Z,91.20
2022-08-04T00:31:56.474Z,91.70
2022-08-04T00:34:29.334Z,91.30
2022-08-04T00:36:59.127Z,91.40
2022-08-04T00:39:28.555Z,91.50
2022-08-04T00:42:34.454Z,91.60
2022-08-04T00:45:22.914Z,91.60
2022-08-04T00:48:08.630Z,91.80
2022-08-04T00:50:46.742Z,91.90
2022-08-04T00:53:26.274Z,92.00
2022-08-04T00:56:27.684Z,92.20
2022-08-04T00:59:04.779Z,92.30
2022-08-04T01:01:56.542Z,92.50
2022-08-04T01:04:39.934Z,92.60
2022-08-04T01:07:28.498Z,92.80
2022-08-04T01:10:04.978Z,92.90
2022-08-04T01:12:59.258Z,93.00
2022-08-04T01:15:59.467Z,93.20
2022-08-04T01:18:37.313Z,93.30
2022-08-04T01:21:32.705Z,93.40
2022-08-04T01:24:20.912Z,93.50
2022-08-04T01:26:58.778Z,93.60
2022-08-04T01:29:44.014Z,93.70
2022-08-04T01:32:25.508Z,93.80
2022-08-04T01:35:03.667Z,93.90
2022-08-04T01:37:50.693Z,94.00
2022-08-04T01:40:20.342Z,94.10
2022-08-04T01:42:53.630Z,94.20
2022-08-04T01:45:26.292Z,94.30
2022-08-04T01:47:56.608Z,94.40
2022-08-04T01:50:28.058Z,94.50
2022-08-04T01:52:57.710Z,94.60
2022-08-04T01:55:54.407Z,94.70
2022-08-04T01:58:20.964Z,94.80
2022-08-04T02:00:58.261Z,94.90
2022-08-04T02:04:21.788Z,95.00
2022-08-04T02:06:33.225Z,95.10
2022-08-04T02:09:12.308Z,95.20
2022-08-04T02:11:43.861Z,95.30
2022-08-04T02:14:36.885Z,95.40
2022-08-04T02:17:12.746Z,95.50
2022-08-04T02:20:02.408Z,95.50
2022-08-04T02:22:34.197Z,95.70
2022-08-04T02:25:08.080Z,95.80
2022-08-04T02:28:00.407Z,95.90
2022-08-04T02:30:44.800Z,96.00
2022-08-04T02:33:19.999Z,96.10
2022-08-04T02:35:54.712Z,96.20
2022-08-04T02:38:28.970Z,96.30
2022-08-04T02:41:01.863Z,96.40
2022-08-04T02:43:51.589Z,96.50
2022-08-04T02:46:22.658Z,96.60
2022-08-04T02:48:54.952Z,96.70
2022-08-04T02:51:26.688Z,96.80
2022-08-04T02:53:58.137Z,97.00
2022-08-04T02:56:29.367Z,97.10
2022-08-04T02:59:01.478Z,97.20
2022-08-04T03:01:31.271Z,97.30
2022-08-04T03:04:35.198Z,97.50
2022-08-04T03:07:50.646Z,97.60
2022-08-04T03:10:39.481Z,97.70
2022-08-04T03:13:41.016Z,97.70
2022-08-04T03:16:48.815Z,97.90
2022-08-04T03:19:54.839Z,98.00
2022-08-04T03:23:14.422Z,98.10
2022-08-04T03:26:07.401Z,98.20
2022-08-04T03:29:35.160Z,98.30
2022-08-04T03:32:44.407Z,98.40
2022-08-04T03:35:44.575Z,98.50
2022-08-04T03:38:35.442Z,98.70
2022-08-04T03:41:55.069Z,98.70
2022-08-04T03:44:50.577Z,98.90
2022-08-04T03:47:55.819Z,98.90
2022-08-04T03:51:35.620Z,99.00
2022-08-04T03:54:23.994Z,99.10
2022-08-04T03:57:20.106Z,99.20
2022-08-04T04:00:09.036Z,99.30
2022-08-04T04:03:07.455Z,99.40
2022-08-04T04:06:15.748Z,99.40
2022-08-04T04:09:20.815Z,99.40
2022-08-04T04:12:18.388Z,99.50
2022-08-04T04:15:12.329Z,99.50
2022-08-04T04:18:17.175Z,99.30
2022-08-04T04:20:59.198Z,98.90
2022-08-04T04:23:48.944Z,98.40
2022-08-04T04:26:41.503Z,97.90
2022-08-04T04:29:30.659Z,97.50
2022-08-04T04:32:08.165Z,97.10
2022-08-04T04:34:47.249Z,96.60
2022-08-04T04:37:31.173Z,96.40
2022-08-04T04:40:14.868Z,96.30
2022-08-04T04:43:20.332Z,96.00
2022-08-04T04:45:56.638Z,95.50
2022-08-04T04:48:37.658Z,95.00
2022-08-04T04:51:14.893Z,94.50
2022-08-04T04:54:00.021Z,94.10
2022-08-04T04:56:36.019Z,93.50
2022-08-04T04:59:09.199Z,92.70
2022-08-04T05:02:13.476Z,92.30
2022-08-04T05:05:08.002Z,92.00
2022-08-04T05:08:42.712Z,91.50
2022-08-04T05:11:30.320Z,91.00
2022-08-04T05:14:39.067Z,90.60
2022-08-04T05:17:01.231Z,90.60
2022-08-04T05:19:39.998Z,90.50
2022-08-04T05:22:14.779Z,90.50
2022-08-04T05:24:47.280Z,90.60
2022-08-04T05:27:22.052Z,90.50
2022-08-04T05:29:56.337Z,90.50
2022-08-04T05:32:29.446Z,90.40
2022-08-04T05:35:04.384Z,90.10
2022-08-04T05:37:35.496Z,89.30
2022-08-04T05:40:07.415Z,88.40
2022-08-04T05:42:40.919Z,87.30
2022-08-04T05:45:11.256Z,86.00
2022-08-04T05:47:40.398Z,85.10
2022-08-04T05:50:10.297Z,84.00
2022-08-04T05:52:40.154Z,83.00
2022-08-04T05:55:12.743Z,82.00
2022-08-04T05:57:54.078Z,81.10
2022-08-04T06:00:40.724Z,80.60
2022-08-04T06:03:11.754Z,79.90
2022-08-04T06:05:41.918Z,78.90
2022-08-04T06:08:13.465Z,78.50
2022-08-04T06:10:45.900Z,77.90
2022-08-04T06:13:47.525Z,76.90
2022-08-04T06:16:17.794Z,76.50
2022-08-04T06:20:00.959Z,76.30
2022-08-04T06:21:41.698Z,75.70
2022-08-04T06:24:13.236Z,75.10
2022-08-04T06:26:42.282Z,74.50
2022-08-04T06:29:20.717Z,73.80
2022-08-04T06:32:30.162Z,73.10
2022-08-04T06:34:48.845Z,72.70
2022-08-04T06:37:41.508Z,72.40
2022-08-04T06:40:29.550Z,72.00
2022-08-04T06:43:00.856Z,71.30
2022-08-04T06:45:32.025Z,70.90
2022-08-04T06:48:02.907Z,70.20
2022-08-04T06:51:30.241Z,69.50
2022-08-04T06:53:21.568Z,69.50
2022-08-04T06:55:51.626Z,69.10
2022-08-04T06:58:22.309Z,68.40
2022-08-04T07:00:53.102Z,67.50
2022-08-04T07:03:22.111Z,66.90
2022-08-04T07:05:52.440Z,66.40
2022-08-04T07:08:22.068Z,66.10
2022-08-04T07:10:53.310Z,65.20
2022-08-04T07:13:23.491Z,64.60
2022-08-04T07:15:56.337Z,64.00
2022-08-04T07:18:25.199Z,63.70
2022-08-04T07:20:54.726Z,63.20
2022-08-04T07:23:25.821Z,63.00
2022-08-04T07:25:59.652Z,62.30
2022-08-04T07:28:41.687Z,61.70
2022-08-04T07:31:33.785Z,61.00
2022-08-04T07:34:16.575Z,60.50
2022-08-04T07:36:52.908Z,59.80
2022-08-04T07:39:27.200Z,59.50
2022-08-04T07:41:57.283Z,59.10
2022-08-04T07:44:26.415Z,58.70
2022-08-04T07:46:56.738Z,58.70
2022-08-04T07:49:54.895Z,58.10
2022-08-04T07:52:15.564Z,57.40
2022-08-04T07:54:45.057Z,56.90
2022-08-04T07:57:19.247Z,56.80
2022-08-04T07:59:52.418Z,55.50
2022-08-04T08:02:23.644Z,54.60
2022-08-04T08:04:52.556Z,53.80
2022-08-04T08:07:21.668Z,53.20
2022-08-04T08:09:50.862Z,53.10
2022-08-04T08:12:37.485Z,52.40
2022-08-04T08:15:11.194Z,52.20
2022-08-04T08:17:59.964Z,51.80
2022-08-04T08:20:31.544Z,51.80
2022-08-04T08:23:00.910Z,51.30
2022-08-04T08:25:32.383Z,51.00
2022-08-04T08:28:01.390Z,50.60
2022-08-04T08:30:31.809Z,50.90
2022-08-04T08:33:05.662Z,51.00
2022-08-04T08:35:53.075Z,50.30
2022-08-04T08:38:50.697Z,50.10
2022-08-04T08:41:57.775Z,49.60
2022-08-04T08:44:58.175Z,49.10
2022-08-04T08:48:05.145Z,49.40
2022-08-04T08:50:55.576Z,48.90
2022-08-04T08:53:40.257Z,48.80
2022-08-04T08:56:31.152Z,48.70
2022-08-04T08:59:26.091Z,48.60
2022-08-04T09:02:11.859Z,48.60
2022-08-04T09:05:04.014Z,48.70
2022-08-04T09:07:53.061Z,48.80
2022-08-04T09:10:27.845Z,49.00
2022-08-04T09:13:07.478Z,48.70
2022-08-04T09:15:40.914Z,48.60
2022-08-04T09:18:19.693Z,48.70
2022-08-04T09:20:53.361Z,48.90
2022-08-04T09:23:35.172Z,48.70
2022-08-04T09:26:10.359Z,49.40
2022-08-04T09:28:54.136Z,49.30
2022-08-04T09:31:51.736Z,49.60
2022-08-04T09:34:29.060Z,49.70
2022-08-04T09:37:06.595Z,49.80
2022-08-04T09:39:51.869Z,49.10
2022-08-04T09:42:30.467Z,50.30
2022-08-04T09:45:06.898Z,49.60
2022-08-04T09:47:41.360Z,50.00
2022-08-04T09:50:24.530Z,50.00
2022-08-04T09:53:04.367Z,49.40
2022-08-04T09:55:53.630Z,49.80
2022-08-04T09:58:41.833Z,50.50
2022-08-04T10:01:14.472Z,50.50
2022-08-04T10:03:46.927Z,51.00
2022-08-04T10:06:37.052Z,50.90
2022-08-04T10:09:19.356Z,51.40
2022-08-04T10:12:01.851Z,51.30
2022-08-04T10:14:40.132Z,51.50
2022-08-04T10:17:22.376Z,51.30
2022-08-04T10:19:59.614Z,51.40
2022-08-04T10:22:55.487Z,51.60
2022-08-04T10:26:05.896Z,51.30
2022-08-04T10:28:32.901Z,51.60
2022-08-04T10:31:08.305Z,52.20
2022-08-04T10:33:46.269Z,52.30
2022-08-04T10:36:20.076Z,52.80
2022-08-04T10:39:12.033Z,52.90
2022-08-04T10:41:49.926Z,52.20
2022-08-04T10:44:29.673Z,52.90
2022-08-04T10:47:17.769Z,53.30
2022-08-04T10:49:47.902Z,53.40
2022-08-04T10:52:24.146Z,52.90
2022-08-04T10:54:59.023Z,53.20
2022-08-04T10:57:38.131Z,53.50
2022-08-04T11:00:12.348Z,53.70
2022-08-04T11:02:48.172Z,53.90
2022-08-04T11:05:23.594Z,54.40
2022-08-04T11:07:54.443Z,54.30
2022-08-04T11:10:26.630Z,54.10
2022-08-04T11:13:01.943Z,54.30
2022-08-04T11:15:38.769Z,54.30
2022-08-04T11:18:16.785Z,54.30
2022-08-04T11:20:54.207Z,54.50
2022-08-04T11:23:28.332Z,54.30
2022-08-04T11:26:04.330Z,54.30
2022-08-04T11:28:43.925Z,55.30
2022-08-04T11:31:20.971Z,54.80
2022-08-04T11:33:57.065Z,54.80
2022-08-04T11:36:40.872Z,55.00
2022-08-04T11:39:15.339Z,55.30
2022-08-04T11:41:52.912Z,55.30
2022-08-04T11:44:30.159Z,55.60
2022-08-04T11:47:03.753Z,55.40
2022-08-04T11:49:57.425Z,55.50
2022-08-04T11:52:30.014Z,55.40
2022-08-04T11:55:00.689Z,55.40
2022-08-04T11:57:36.359Z,55.70
2022-08-04T12:00:10.204Z,55.90
2022-08-04T12:03:20.766Z,55.80
2022-08-04T12:05:58.851Z,55.80
2022-08-04T12:08:51.143Z,55.70
2022-08-04T12:11:29.772Z,55.80
2022-08-04T12:14:08.260Z,55.80
2022-08-04T12:16:43.510Z,55.80
2022-08-04T12:19:22.800Z,55.90
2022-08-04T12:21:56.773Z,56.20
2022-08-04T12:24:32.695Z,56.10
2022-08-04T12:27:18.247Z,56.10
2022-08-04T12:30:54.033Z,56.20
2022-08-04T12:32:48.218Z,56.20
2022-08-04T12:35:28.839Z,56.20
2022-08-04T12:38:03.015Z,56.40
2022-08-04T12:40:46.224Z,56.60
2022-08-04T12:43:20.613Z,56.80
2022-08-04T12:45:53.001Z,56.80
2022-08-04T12:48:22.746Z,56.80
2022-08-04T12:50:55.532Z,56.80
2022-08-04T12:53:32.168Z,56.70
2022-08-04T12:56:02.738Z,56.60
2022-08-04T12:58:42.086Z,56.80
2022-08-04T13:02:07.220Z,56.90
2022-08-04T13:04:12.880Z,57.10
2022-08-04T13:06:44.641Z,57.30
2022-08-04T13:09:19.291Z,57.40
2022-08-04T13:11:54.049Z,57.40
2022-08-04T13:14:27.800Z,57.40
2022-08-04T13:17:01.271Z,57.50
2022-08-04T13:19:31.884Z,57.50
2022-08-04T13:22:12.079Z,57.50
2022-08-04T13:25:18.281Z,57.60
2022-08-04T13:27:43.136Z,58.60
2022-08-04T13:30:18.577Z,57.90
2022-08-04T13:32:57.261Z,58.20
2022-08-04T13:35:55.237Z,58.20
2022-08-04T13:38:19.724Z,58.30
2022-08-04T13:40:49.622Z,58.40
2022-08-04T13:44:16.978Z,58.60
2022-08-04T13:46:27.129Z,58.50
2022-08-04T13:49:25.863Z,58.40
2022-08-04T13:51:57.997Z,58.40
2022-08-04T13:54:42.506Z,58.60
2022-08-04T13:57:16.324Z,58.60
2022-08-04T13:59:52.955Z,58.70
2022-08-04T14:02:33.165Z,58.80
2022-08-04T14:05:18.810Z,58.60
2022-08-04T14:07:51.048Z,58.60
2022-08-04T14:10:22.163Z,58.50
2022-08-04T14:12:52.253Z,58.40
2022-08-04T14:16:01.344Z,58.30
2022-08-04T14:18:32.104Z,58.70
2022-08-04T14:21:06.850Z,58.10
2022-08-04T14:23:47.218Z,58.10
2022-08-04T14:26:21.095Z,58.10
2022-08-04T14:29:26.175Z,57.90
2022-08-04T14:32:06.047Z,58.00
2022-08-04T14:34:51.551Z,57.80
2022-08-04T14:37:22.706Z,58.10
2022-08-04T14:40:08.919Z,58.10
2022-08-04T14:42:54.995Z,58.00
2022-08-04T14:45:35.838Z,58.00
2022-08-04T14:48:08.968Z,58.20
2022-08-04T14:50:40.107Z,58.30
2022-08-04T14:53:10.975Z,58.30
2022-08-04T14:55:43.576Z,58.50
2022-08-04T14:58:37.962Z,58.40
2022-08-04T15:01:11.700Z,58.40
2022-08-04T15:03:50.205Z,58.60
2022-08-04T15:06:23.493Z,58.60
2022-08-04T15:08:52.930Z,58.80
2022-08-04T15:11:24.269Z,58.30
2022-08-04T15:13:56.122Z,58.90
2022-08-04T15:16:26.248Z,59.00
2022-08-04T15:18:56.815Z,59.10
2022-08-04T15:21:28.326Z,59.20
2022-08-04T15:23:57.969Z,59.30
2022-08-04T15:26:35.081Z,59.30
2022-08-04T15:29:16.243Z,59.40
2022-08-04T15:32:05.668Z,59.50
2022-08-04T15:34:51.160Z,59.40
2022-08-04T15:37:27.491Z,59.40
2022-08-04T15:40:00.493Z,59.40
2022-08-04T15:42:36.974Z,59.30
2022-08-04T15:45:21.870Z,59.40
2022-08-04T15:48:29.101Z,59.70
2022-08-04T15:51:14.398Z,59.90
2022-08-04T15:54:24.462Z,60.00
2022-08-04T15:57:02.634Z,60.00
2022-08-04T16:00:03.776Z,60.20
2022-08-04T16:02:51.761Z,60.50
2022-08-04T16:05:40.287Z,60.50
2022-08-04T16:08:16.796Z,60.70
2022-08-04T16:10:50.763Z,60.80
2022-08-04T16:13:21.421Z,61.10
2022-08-04T16:15:54.807Z,61.20
2022-08-04T16:18:40.530Z,61.40
2022-08-04T16:21:19.935Z,61.60
2022-08-04T16:24:22.586Z,61.80
2022-08-04T16:26:56.446Z,62.10
2022-08-04T16:29:40.190Z,62.10
2022-08-04T16:32:10.753Z,62.20
2022-08-04T16:34:48.871Z,62.40
2022-08-04T16:37:20.364Z,62.50
2022-08-04T16:39:50.462Z,62.60
2022-08-04T16:42:36.627Z,62.90
2022-08-04T16:45:13.216Z,63.10
2022-08-04T16:48:07.650Z,63.20
2022-08-04T16:50:57.598Z,63.40
2022-08-04T16:54:03.690Z,63.60
2022-08-04T16:56:33.746Z,63.70
2022-08-04T16:59:09.533Z,63.90
2022-08-04T17:01:39.014Z,64.00
2022-08-04T17:04:08.297Z,64.20
2022-08-04T17:06:40.416Z,64.30
2022-08-04T17:09:13.637Z,64.50
2022-08-04T17:11:43.133Z,64.70
2022-08-04T17:14:12.431Z,64.80
2022-08-04T17:16:43.549Z,65.00
2022-08-04T17:19:25.052Z,65.10
2022-08-04T17:22:04.978Z,65.20
2022-08-04T17:24:35.623Z,65.40
2022-08-04T17:28:18.947Z,65.50
2022-08-04T17:29:53.905Z,65.60
2022-08-04T17:32:24.177Z,65.80
2022-08-04T17:34:55.164Z,65.80
2022-08-04T17:37:39.235Z,66.00
2022-08-04T17:40:22.599Z,66.10
2022-08-04T17:44:05.193Z,66.20
2022-08-04T17:46:29.643Z,66.40
2022-08-04T17:49:06.092Z,66.50
2022-08-04T17:52:06.482Z,66.60
2022-08-04T17:54:36.787Z,66.70
2022-08-04T17:57:19.381Z,67.00
2022-08-04T17:59:57.970Z,67.30
2022-08-04T18:02:32.361Z,67.50
2022-08-04T18:05:07.564Z,67.70
2022-08-04T18:08:42.984Z,67.90
2022-08-04T18:10:52.508Z,68.10
2022-08-04T18:13:25.741Z,68.40
2022-08-04T18:16:03.164Z,68.50
2022-08-04T18:18:31.999Z,68.70
2022-08-04T18:21:03.509Z,68.90
2022-08-04T18:23:33.762Z,69.10
2022-08-04T18:26:04.116Z,69.30
2022-08-04T18:28:33.154Z,69.50
2022-08-04T18:31:02.350Z,69.70
2022-08-04T18:33:40.807Z,70.00
2022-08-04T18:36:34.199Z,70.30
2022-08-04T18:42:04.090Z,70.80
2022-08-04T18:44:52.017Z,71.20
2022-08-04T18:47:23.239Z,71.50
2022-08-04T18:50:59.084Z,71.80
2022-08-04T18:52:45.398Z,72.10
2022-08-04T18:55:57.206Z,72.30
2022-08-04T18:58:11.610Z,72.70
2022-08-04T19:00:45.809Z,73.00
2022-08-04T19:03:16.455Z,73.30
2022-08-04T19:05:52.417Z,73.80
2022-08-04T19:08:34.259Z,74.00
2022-08-04T19:11:37.447Z,74.30
2022-08-04T19:13:58.024Z,74.70
2022-08-04T19:16:28.786Z,75.00
2022-08-04T19:18:57.931Z,75.30
2022-08-04T19:21:59.197Z,75.60
2022-08-04T19:24:32.517Z,76.00
2022-08-04T19:27:06.827Z,76.20
2022-08-04T19:29:42.861Z,76.30
2022-08-04T19:32:15.791Z,76.50
2022-08-04T19:34:47.421Z,76.60
2022-08-04T19:37:58.416Z,76.80
2022-08-04T19:40:08.170Z,76.90
2022-08-04T19:42:38.849Z,76.90
2022-08-04T19:45:15.360Z,77.10
2022-08-04T19:48:12.332Z,77.30
2022-08-04T19:50:34.476Z,77.40
2022-08-04T19:53:04.238Z,77.60
2022-08-04T19:55:49.885Z,77.70
2022-08-04T19:58:21.577Z,77.90
2022-08-04T20:00:56.853Z,78.10
2022-08-04T20:04:09.776Z,78.10
2022-08-04T20:06:14.915Z,78.40
2022-08-04T20:08:48.138Z,78.50
2022-08-04T20:14:07.093Z,78.80
2022-08-04T20:16:38.666Z,79.10
2022-08-04T20:19:10.609Z,79.50
2022-08-04T20:21:55.219Z,79.40
2022-08-04T20:24:37.845Z,79.40
2022-08-04T20:27:15.145Z,79.60
2022-08-04T20:29:47.444Z,79.70
2022-08-04T20:32:22.124Z,79.90
2022-08-04T20:34:52.049Z,80.00
2022-08-04T20:37:23.161Z,80.10
2022-08-04T20:39:55.618Z,80.20
2022-08-04T20:42:27.006Z,80.30
2022-08-04T20:44:57.129Z,80.40
2022-08-04T20:47:35.090Z,80.60
2022-08-04T20:50:08.693Z,80.60
2022-08-04T20:52:39.530Z,80.90
2022-08-04T20:55:09.990Z,80.90
2022-08-04T20:57:49.305Z,81.00
2022-08-04T21:00:26.563Z,81.10
2022-08-04T21:03:01.171Z,81.40
2022-08-04T21:05:31.411Z,81.40
2022-08-04T21:08:01.892Z,81.40
2022-08-04T21:10:39.971Z,81.40
2022-08-04T21:13:16.277Z,81.50
2022-08-04T21:15:58.150Z,81.70
2022-08-04T21:18:29.855Z,81.70
2022-08-04T21:20:58.726Z,81.70
2022-08-04T21:23:27.429Z,81.70
2022-08-04T21:26:02.534Z,82.10
2022-08-04T21:28:32.475Z,81.90
2022-08-04T21:31:02.605Z,81.80
2022-08-04T21:33:52.387Z,81.90
2022-08-04T21:36:21.386Z,81.80
2022-08-04T21:38:52.175Z,81.80
2022-08-04T21:41:24.702Z,81.90
2022-08-04T21:43:58.850Z,81.90
2022-08-04T21:46:29.954Z,81.70
2022-08-04T21:49:00.808Z,81.60
2022-08-04T21:51:57.962Z,81.60
2022-08-04T21:54:21.712Z,81.40
2022-08-04T21:56:52.648Z,81.30
2022-08-04T21:59:23.483Z,81.10
2022-08-04T22:01:57.704Z,80.80
2022-08-04T22:04:30.916Z,80.50
2022-08-04T22:07:03.066Z,80.30
2022-08-04T22:09:38.949Z,80.10
2022-08-04T22:12:12.129Z,79.90
2022-08-04T22:14:41.287Z,79.80
2022-08-04T22:17:13.858Z,79.50
2022-08-04T22:19:55.643Z,79.30
2022-08-04T22:22:29.055Z,79.20
2022-08-04T22:25:12.268Z,79.10
2022-08-04T22:28:02.841Z,79.00
2022-08-04T22:30:36.753Z,78.90
2022-08-04T22:33:08.806Z,78.90
2022-08-04T22:35:43.766Z,78.90
2022-08-04T22:38:21.263Z,78.80
2022-08-04T22:40:59.490Z,78.80
2022-08-04T22:43:32.698Z,78.70
2022-08-04T22:46:05.346Z,78.80
2022-08-04T22:48:37.223Z,78.80
2022-08-04T22:51:08.694Z,78.80
2022-08-04T22:53:37.965Z,78.80
2022-08-04T22:56:10.765Z,78.80
2022-08-04T22:58:45.654Z,78.90
2022-08-04T23:01:19.644Z,78.90
2022-08-04T23:03:55.386Z,79.00
2022-08-04T23:06:28.670Z,78.90
2022-08-04T23:08:59.335Z,78.90
2022-08-04T23:11:34.373Z,78.90
2022-08-04T23:14:05.327Z,79.10
2022-08-04T23:16:40.554Z,79.20
2022-08-04T23:19:15.247Z,79.20
2022-08-04T23:21:47.732Z,79.20
2022-08-04T23:24:30.167Z,79.40
2022-08-04T23:26:59.391Z,79.40
2022-08-04T23:29:27.968Z,79.60
2022-08-04T23:32:20.431Z,79.60
2022-08-04T23:34:49.295Z,79.80
2022-08-04T23:37:19.623Z,80.00
2022-08-04T23:40:15.534Z,80.00
2022-08-04T23:42:36.960Z,80.20
2022-08-04T23:45:12.098Z,80.30
2022-08-04T23:48:15.357Z,80.40
2022-08-04T23:50:29.399Z,80.60
2022-08-04T23:52:59.630Z,80.60
2022-08-04T23:55:32.051Z,80.90
2022-08-04T23:58:06.078Z,80.90
